Mombasa, Kenya

5:37 PM EAT on February 11, 2016 (GMT +0300)
Moi | | Change Station
CLOSE
Current Station
Airport
Location: Mombasa,
Elevation: 180 ft
Nearby Weather Stations

Elev 180 ft 4.03 °S, 39.62 °E | Updated 37 minutes ago

Partly Cloudy
Partly Cloudy
86 °F
Feels Like 93 °F
N
10
Wind Variable Wind from East

Today
High -- | Low -- °F
--% Chance of Precip.
Yesterday
High -- | Low -- °F
Precip. -- in
Pressure 29.80 in
Visibility 6.2 miles
Clouds Few 2600 ft
Heat Index 93 °F
Dew Point 73 °F
Humidity 66%
Rainfall 0.00 in
Snow Depth Not available.
6:28 AM 6:43 PM
Waxing Crescent, 12% visible
METAR HKMO 111400Z 09009KT 9999 FEW026 30/23 Q1009 NOSIG
Pressure 29.80 in
Visibility 6.2 miles
Clouds Few 2600 ft
Heat Index 93 °F
Dew Point 73 °F
Humidity 66%
Rainfall 0.00 in
Snow Depth Not available.
6:28 AM 6:43 PM
Waxing Crescent, 12% visible
METAR HKMO 111400Z 09009KT 9999 FEW026 30/23 Q1009 NOSIG

10-Day Weather Forecast

No radar image for this location.
×

Almanac

Astronomy

Feb. 11, 2016 Rise Set
Actual Time
Civil Twilight
Nautical Twilight
Astronomical Twilight
Moon
Length of Visible Light
Length of Day
Tomorrow will be .
, % of the Moon is Illuminated

Today's Extremes

Country Highs Country Lows

Community

WunderPhotos

Upload Photos

1,892,054 photos uploaded!

WunderBlog® & News

Nearby

Air Quality

  Air Quality AQ Index Pollutant
Not available.

Snow Depth

Station Depth Elevation

Earthquake Activity

City Distance Mag. Time & Date
Minimum magnitude displayed is 2.5.

Coastal Water Temperatures

Place Temperature

Stations

Nearby Weather Stations

Station Location Temp. Windchill Dew Point Humidity Wind Precip. Elev Updated Type